Anzoras — EAZC — position and weather

sailwx.info

Track history (hours):
 
Tides and Currents Weather Stations Pressure Air Temp Water Temp Dewpoint Dewpoint Depression Visibility Wind Speed Wind Dir Waves Ship Positions

Anzoras

Last reported at 2015-Apr-26 00:33 UTC. Time now 2015-May-03 08:49 UTC.
Position N 38°18' W 010°02'.

Length 100 m; draft 4.3 m.

Type: Cargo ship. MMSI: 224376000.

Date/timePositionNaut miles runAvg speedWind from/ knotsBaromVisibWave heightAir tempDewpointWater temp
2015-Apr-26 00:33N 38°18' W 010°02'1110.5
2015-Apr-25 23:31N 38°28' W 010°04'1010.6
2015-Apr-25 22:32N 38°39' W 010°05'10 9.9
2015-Apr-25 21:32N 38°49' W 010°06'10 9.7
2015-Apr-25 20:33N 38°58' W 010°06'12 9.5
2015-Apr-25 19:17N 39°10' W 010°06'324 7.7
2015-Apr-24 01:22N 43°45' W 006°17'911.7
2015-Apr-24 00:33N 43°44' W 006°04'1211.5
2015-Apr-23 23:33N 43°42' W 005°48'10 9.7
2015-Apr-23 22:33N 43°34' W 005°41'1 0.2
2015-Apr-23 19:08N 43°34' W 005°42'0 0.0
2015-Apr-23 18:32N 43°34' W 005°42'0 0.0
2015-Apr-23 17:32N 43°34' W 005°42'0 0.0
2015-Apr-23 16:32N 43°34' W 005°42'0 0.0
2015-Apr-23 14:32N 43°34' W 005°42'0 0.0
2015-Apr-23 13:26N 43°34' W 005°42'0 0.0
2015-Apr-23 12:26N 43°34' W 005°42'0 0.0
2015-Apr-23 11:32N 43°34' W 005°42'0 0.0
2015-Apr-23 10:26N 43°34' W 005°42'0 0.0
2015-Apr-23 09:32N 43°34' W 005°42'0 0.0
2015-Apr-23 08:26N 43°34' W 005°42'0 0.0
2015-Apr-23 07:20N 43°34' W 005°42'0 0.0
2015-Apr-23 06:32N 43°34' W 005°42'0 0.0
2015-Apr-23 05:32N 43°34' W 005°42'0 0.0
2015-Apr-23 04:14N 43°34' W 005°42'0 0.0
2015-Apr-23 03:32N 43°34' W 005°42'0 0.0
2015-Apr-23 02:32N 43°34' W 005°42'0 0.0
2015-Apr-23 01:32N 43°34' W 005°42'0 0.0
2015-Apr-22 20:20N 43°34' W 005°42'0 0.0
2015-Apr-22 18:14N 43°34' W 005°42'0 0.0
2015-Apr-22 17:14N 43°34' W 005°42'0 0.0
2015-Apr-22 16:32N 43°34' W 005°42'0 0.0
2015-Apr-22 12:26N 43°34' W 005°42'0 0.0
2015-Apr-22 08:26N 43°34' W 005°42'0 0.0
2015-Apr-22 07:14N 43°34' W 005°42'0 0.0
2015-Apr-22 06:32N 43°34' W 005°42'0 0.0
2015-Apr-22 05:32N 43°34' W 005°42'0 0.0
2015-Apr-22 04:32N 43°34' W 005°42'0 0.0
2015-Apr-22 03:32N 43°34' W 005°42'0 0.0
2015-Apr-21 20:20N 43°34' W 005°42'0 0.0
2015-Apr-21 18:20N 43°34' W 005°42'0 0.0
2015-Apr-21 17:26N 43°34' W 005°42'0 0.0
2015-Apr-21 15:20N 43°34' W 005°42'0 0.0
2015-Apr-21 13:33N 43°34' W 005°42'2 1.8
2015-Apr-21 12:28N 43°36' W 005°42'0 0.0
2015-Apr-21 06:21N 43°36' W 005°42'0 0.0
2015-Apr-20 09:11N 43°36' W 005°42'2 3.1
2015-Apr-20 08:32N 43°38' W 005°42'1110.9
2015-Apr-20 07:33N 43°48' W 005°41'  
2015-Apr-18 01:20N 53°45' W 005°54'1011.7
2015-Apr-18 00:30N 53°54' W 005°59'1010.6
2015-Apr-17 23:33N 54°03' W 006°08'5 4.7
2015-Apr-17 22:23N 54°06' W 006°16'0 0.0
2015-Apr-17 21:23N 54°06' W 006°16'0 0.0
2015-Apr-17 14:11N 54°06' W 006°16'0 0.0
2015-Apr-17 13:05N 54°06' W 006°16'0 0.0
2015-Apr-17 12:29N 54°06' W 006°16'0 0.0
2015-Apr-17 11:29N 54°06' W 006°16'0 0.0
2015-Apr-17 09:20N 54°06' W 006°16'0 0.0
2015-Apr-17 08:11N 54°06' W 006°16'0 0.0
2015-Apr-17 07:32N 54°06' W 006°16'0 0.0
2015-Apr-17 06:32N 54°06' W 006°16'0 0.0
2015-Apr-17 05:29N 54°06' W 006°16'0 0.0
2015-Apr-17 04:26N 54°06' W 006°16'0 0.0
2015-Apr-17 03:17N 54°06' W 006°16'0 0.0
2015-Apr-17 02:17N 54°06' W 006°16'0 0.0
2015-Apr-17 01:17N 54°06' W 006°16'0 0.0
2015-Apr-17 00:17N 54°06' W 006°16'0 0.0
2015-Apr-16 23:17N 54°06' W 006°16'0 0.0
2015-Apr-16 21:29N 54°06' W 006°16'0 0.0
2015-Apr-16 20:26N 54°06' W 006°16'0 0.0
2015-Apr-16 19:32N 54°06' W 006°16'0 0.0
2015-Apr-16 17:20N 54°06' W 006°16'0 0.0
2015-Apr-16 12:29N 54°06' W 006°16'0 0.0
2015-Apr-16 11:11N 54°06' W 006°16'  
Track history (hours):
 
Tides and Currents Weather Stations Pressure Air Temp Water Temp Dewpoint Dewpoint Depression Visibility Wind Speed Wind Dir Waves Ship Positions

Anzoras

Last reported at 2015-Apr-26 00:33 UTC. Time now 2015-May-03 08:49 UTC.
Position N 38°18' W 010°02'.

Length 100 m; draft 4.3 m.

Type: Cargo ship. MMSI: 224376000.

Date/timePositionNaut miles runAvg speedWind from/ knotsBaromVisibWave heightAir tempDewpointWater temp
2015-Apr-26 00:33N 38°18' W 010°02'1110.5
2015-Apr-25 23:31N 38°28' W 010°04'1010.6
2015-Apr-25 22:32N 38°39' W 010°05'10 9.9
2015-Apr-25 21:32N 38°49' W 010°06'10 9.7
2015-Apr-25 20:33N 38°58' W 010°06'12 9.5
2015-Apr-25 19:17N 39°10' W 010°06'324 7.7
2015-Apr-24 01:22N 43°45' W 006°17'911.7
2015-Apr-24 00:33N 43°44' W 006°04'1211.5
2015-Apr-23 23:33N 43°42' W 005°48'10 9.7
2015-Apr-23 22:33N 43°34' W 005°41'1 0.2
2015-Apr-23 19:08N 43°34' W 005°42'0 0.0
2015-Apr-23 18:32N 43°34' W 005°42'0 0.0
2015-Apr-23 17:32N 43°34' W 005°42'0 0.0
2015-Apr-23 16:32N 43°34' W 005°42'0 0.0
2015-Apr-23 14:32N 43°34' W 005°42'0 0.0
2015-Apr-23 13:26N 43°34' W 005°42'0 0.0
2015-Apr-23 12:26N 43°34' W 005°42'0 0.0
2015-Apr-23 11:32N 43°34' W 005°42'0 0.0
2015-Apr-23 10:26N 43°34' W 005°42'0 0.0
2015-Apr-23 09:32N 43°34' W 005°42'0 0.0
2015-Apr-23 08:26N 43°34' W 005°42'0 0.0
2015-Apr-23 07:20N 43°34' W 005°42'0 0.0
2015-Apr-23 06:32N 43°34' W 005°42'0 0.0
2015-Apr-23 05:32N 43°34' W 005°42'0 0.0
2015-Apr-23 04:14N 43°34' W 005°42'0 0.0
2015-Apr-23 03:32N 43°34' W 005°42'0 0.0
2015-Apr-23 02:32N 43°34' W 005°42'0 0.0
2015-Apr-23 01:32N 43°34' W 005°42'0 0.0
2015-Apr-22 20:20N 43°34' W 005°42'0 0.0
2015-Apr-22 18:14N 43°34' W 005°42'0 0.0
2015-Apr-22 17:14N 43°34' W 005°42'0 0.0
2015-Apr-22 16:32N 43°34' W 005°42'0 0.0
2015-Apr-22 12:26N 43°34' W 005°42'0 0.0
2015-Apr-22 08:26N 43°34' W 005°42'0 0.0
2015-Apr-22 07:14N 43°34' W 005°42'0 0.0
2015-Apr-22 06:32N 43°34' W 005°42'0 0.0
2015-Apr-22 05:32N 43°34' W 005°42'0 0.0
2015-Apr-22 04:32N 43°34' W 005°42'0 0.0
2015-Apr-22 03:32N 43°34' W 005°42'0 0.0
2015-Apr-21 20:20N 43°34' W 005°42'0 0.0
2015-Apr-21 18:20N 43°34' W 005°42'0 0.0
2015-Apr-21 17:26N 43°34' W 005°42'0 0.0
2015-Apr-21 15:20N 43°34' W 005°42'0 0.0
2015-Apr-21 13:33N 43°34' W 005°42'2 1.8
2015-Apr-21 12:28N 43°36' W 005°42'0 0.0
2015-Apr-21 06:21N 43°36' W 005°42'0 0.0
2015-Apr-20 09:11N 43°36' W 005°42'2 3.1
2015-Apr-20 08:32N 43°38' W 005°42'1110.9
2015-Apr-20 07:33N 43°48' W 005°41'  
2015-Apr-18 01:20N 53°45' W 005°54'1011.7
2015-Apr-18 00:30N 53°54' W 005°59'1010.6
2015-Apr-17 23:33N 54°03' W 006°08'5 4.7
2015-Apr-17 22:23N 54°06' W 006°16'0 0.0
2015-Apr-17 21:23N 54°06' W 006°16'0 0.0
2015-Apr-17 14:11N 54°06' W 006°16'0 0.0
2015-Apr-17 13:05N 54°06' W 006°16'0 0.0
2015-Apr-17 12:29N 54°06' W 006°16'0 0.0
2015-Apr-17 11:29N 54°06' W 006°16'0 0.0
2015-Apr-17 09:20N 54°06' W 006°16'0 0.0
2015-Apr-17 08:11N 54°06' W 006°16'0 0.0
2015-Apr-17 07:32N 54°06' W 006°16'0 0.0
2015-Apr-17 06:32N 54°06' W 006°16'0 0.0
2015-Apr-17 05:29N 54°06' W 006°16'0 0.0
2015-Apr-17 04:26N 54°06' W 006°16'0 0.0
2015-Apr-17 03:17N 54°06' W 006°16'0 0.0
2015-Apr-17 02:17N 54°06' W 006°16'0 0.0
2015-Apr-17 01:17N 54°06' W 006°16'0 0.0
2015-Apr-17 00:17N 54°06' W 006°16'0 0.0
2015-Apr-16 23:17N 54°06' W 006°16'0 0.0
2015-Apr-16 21:29N 54°06' W 006°16'0 0.0
2015-Apr-16 20:26N 54°06' W 006°16'0 0.0
2015-Apr-16 19:32N 54°06' W 006°16'0 0.0
2015-Apr-16 17:20N 54°06' W 006°16'0 0.0
2015-Apr-16 12:29N 54°06' W 006°16'0 0.0
2015-Apr-16 11:11N 54°06' W 006°16'  

Dump ship's entire track history